sensor_id;sensor_type;location;lat;lon;timestamp;P1;durP1;ratioP1;P2;durP2;ratioP2
26989;SDS011;14537;47.788;11.858;2022-12-16T00:01:49;22.42;;;9.25;;
26989;SDS011;14537;47.788;11.858;2022-12-16T00:04:15;26.33;;;9.52;;
26989;SDS011;14537;47.788;11.858;2022-12-16T00:06:41;24.27;;;9.73;;
26989;SDS011;14537;47.788;11.858;2022-12-16T00:09:07;23.00;;;9.07;;
26989;SDS011;14537;47.788;11.858;2022-12-16T00:11:33;16.40;;;7.25;;
26989;SDS011;14537;47.788;11.858;2022-12-16T00:13:59;33.70;;;9.13;;
26989;SDS011;14537;47.788;11.858;2022-12-16T00:16:25;22.42;;;7.75;;
26989;SDS011;14537;47.788;11.858;2022-12-16T00:18:50;22.85;;;8.45;;
26989;SDS011;14537;47.788;11.858;2022-12-16T00:21:16;24.38;;;8.20;;
26989;SDS011;14537;47.788;11.858;2022-12-16T00:23:45;24.00;;;9.05;;
26989;SDS011;14537;47.788;11.858;2022-12-16T00:26:10;24.88;;;9.50;;
26989;SDS011;14537;47.788;11.858;2022-12-16T00:28:36;27.48;;;10.13;;
26989;SDS011;14537;47.788;11.858;2022-12-16T00:31:03;22.90;;;9.05;;
26989;SDS011;14537;47.788;11.858;2022-12-16T00:33:29;23.45;;;9.60;;
26989;SDS011;14537;47.788;11.858;2022-12-16T00:35:55;20.10;;;8.82;;
26989;SDS011;14537;47.788;11.858;2022-12-16T00:38:21;53.58;;;11.15;;
26989;SDS011;14537;47.788;11.858;2022-12-16T00:40:48;46.63;;;10.18;;
26989;SDS011;14537;47.788;11.858;2022-12-16T00:43:13;20.20;;;9.02;;
26989;SDS011;14537;47.788;11.858;2022-12-16T00:45:39;35.00;;;10.15;;
26989;SDS011;14537;47.788;11.858;2022-12-16T00:48:05;22.80;;;9.05;;
26989;SDS011;14537;47.788;11.858;2022-12-16T00:50:32;22.10;;;8.95;;
26989;SDS011;14537;47.788;11.858;2022-12-16T00:52:59;48.47;;;10.05;;
26989;SDS011;14537;47.788;11.858;2022-12-16T00:55:25;31.42;;;9.23;;
26989;SDS011;14537;47.788;11.858;2022-12-16T00:57:51;30.73;;;9.20;;
26989;SDS011;14537;47.788;11.858;2022-12-16T01:00:17;26.30;;;9.60;;
26989;SDS011;14537;47.788;11.858;2022-12-16T01:02:45;22.27;;;8.82;;
26989;SDS011;14537;47.788;11.858;2022-12-16T01:05:12;32.08;;;9.43;;
26989;SDS011;14537;47.788;11.858;2022-12-16T01:07:40;24.42;;;7.85;;
26989;SDS011;14537;47.788;11.858;2022-12-16T01:10:07;38.47;;;8.88;;
26989;SDS011;14537;47.788;11.858;2022-12-16T01:12:34;32.15;;;8.35;;
26989;SDS011;14537;47.788;11.858;2022-12-16T01:15:00;24.27;;;8.40;;
26989;SDS011;14537;47.788;11.858;2022-12-16T01:17:26;21.25;;;8.43;;
26989;SDS011;14537;47.788;11.858;2022-12-16T01:19:52;29.52;;;8.00;;
26989;SDS011;14537;47.788;11.858;2022-12-16T01:22:18;29.00;;;9.77;;
26989;SDS011;14537;47.788;11.858;2022-12-16T01:24:45;31.85;;;8.30;;
26989;SDS011;14537;47.788;11.858;2022-12-16T01:27:10;24.30;;;8.40;;
26989;SDS011;14537;47.788;11.858;2022-12-16T01:29:36;24.48;;;8.02;;
26989;SDS011;14537;47.788;11.858;2022-12-16T01:32:02;29.08;;;8.88;;
26989;SDS011;14537;47.788;11.858;2022-12-16T01:34:28;22.88;;;8.80;;
26989;SDS011;14537;47.788;11.858;2022-12-16T01:36:54;22.33;;;7.32;;
26989;SDS011;14537;47.788;11.858;2022-12-16T01:39:20;20.38;;;7.90;;
26989;SDS011;14537;47.788;11.858;2022-12-16T01:41:46;23.63;;;8.85;;
26989;SDS011;14537;47.788;11.858;2022-12-16T01:44:15;22.17;;;8.80;;
26989;SDS011;14537;47.788;11.858;2022-12-16T01:46:50;22.92;;;8.07;;
26989;SDS011;14537;47.788;11.858;2022-12-16T01:49:25;18.20;;;7.35;;
26989;SDS011;14537;47.788;11.858;2022-12-16T01:51:58;22.08;;;8.80;;
26989;SDS011;14537;47.788;11.858;2022-12-16T01:54:28;15.93;;;6.88;;
26989;SDS011;14537;47.788;11.858;2022-12-16T01:57:01;21.75;;;8.95;;
26989;SDS011;14537;47.788;11.858;2022-12-16T01:59:30;22.30;;;7.97;;
26989;SDS011;14537;47.788;11.858;2022-12-16T02:01:56;21.95;;;7.63;;
26989;SDS011;14537;47.788;11.858;2022-12-16T02:04:23;19.05;;;7.63;;
26989;SDS011;14537;47.788;11.858;2022-12-16T02:06:48;16.95;;;6.95;;
26989;SDS011;14537;47.788;11.858;2022-12-16T02:09:14;18.65;;;7.15;;
26989;SDS011;14537;47.788;11.858;2022-12-16T02:11:46;19.75;;;6.78;;
26989;SDS011;14537;47.788;11.858;2022-12-16T02:17:16;15.60;;;5.50;;
26989;SDS011;14537;47.788;11.858;2022-12-16T02:21:04;18.13;;;7.45;;
26989;SDS011;14537;47.788;11.858;2022-12-16T02:34:31;17.67;;;6.75;;
26989;SDS011;14537;47.788;11.858;2022-12-16T02:42:47;19.45;;;7.63;;
26989;SDS011;14537;47.788;11.858;2022-12-16T02:45:18;15.70;;;6.88;;
26989;SDS011;14537;47.788;11.858;2022-12-16T02:47:49;20.05;;;8.30;;
26989;SDS011;14537;47.788;11.858;2022-12-16T02:50:25;19.08;;;8.18;;
26989;SDS011;14537;47.788;11.858;2022-12-16T02:52:52;22.23;;;7.85;;
26989;SDS011;14537;47.788;11.858;2022-12-16T02:55:20;19.90;;;7.30;;
26989;SDS011;14537;47.788;11.858;2022-12-16T02:57:56;15.45;;;6.95;;
26989;SDS011;14537;47.788;11.858;2022-12-16T03:00:38;18.05;;;7.57;;
26989;SDS011;14537;47.788;11.858;2022-12-16T03:03:18;15.82;;;6.50;;
26989;SDS011;14537;47.788;11.858;2022-12-16T03:05:48;17.02;;;7.18;;
26989;SDS011;14537;47.788;11.858;2022-12-16T03:08:18;18.42;;;7.05;;
26989;SDS011;14537;47.788;11.858;2022-12-16T03:10:54;17.33;;;7.47;;
26989;SDS011;14537;47.788;11.858;2022-12-16T03:13:23;15.02;;;6.45;;
26989;SDS011;14537;47.788;11.858;2022-12-16T03:15:52;18.10;;;7.20;;
26989;SDS011;14537;47.788;11.858;2022-12-16T03:18:21;13.57;;;6.07;;
26989;SDS011;14537;47.788;11.858;2022-12-16T03:20:49;18.27;;;6.47;;
26989;SDS011;14537;47.788;11.858;2022-12-16T03:23:20;17.40;;;6.80;;
26989;SDS011;14537;47.788;11.858;2022-12-16T03:26:01;13.70;;;6.15;;
26989;SDS011;14537;47.788;11.858;2022-12-16T03:28:51;15.68;;;6.07;;
26989;SDS011;14537;47.788;11.858;2022-12-16T03:36:23;13.82;;;6.07;;
26989;SDS011;14537;47.788;11.858;2022-12-16T03:38:51;15.23;;;6.50;;
26989;SDS011;14537;47.788;11.858;2022-12-16T03:41:19;18.95;;;7.13;;
26989;SDS011;14537;47.788;11.858;2022-12-16T03:43:47;12.00;;;5.50;;
26989;SDS011;14537;47.788;11.858;2022-12-16T03:46:14;14.07;;;6.35;;
26989;SDS011;14537;47.788;11.858;2022-12-16T03:48:48;15.32;;;6.22;;
26989;SDS011;14537;47.788;11.858;2022-12-16T03:51:15;10.93;;;5.60;;
26989;SDS011;14537;47.788;11.858;2022-12-16T03:53:42;18.13;;;6.82;;
26989;SDS011;14537;47.788;11.858;2022-12-16T03:56:08;17.27;;;6.32;;
26989;SDS011;14537;47.788;11.858;2022-12-16T03:58:35;18.02;;;7.32;;
26989;SDS011;14537;47.788;11.858;2022-12-16T04:01:03;17.90;;;7.85;;
26989;SDS011;14537;47.788;11.858;2022-12-16T04:03:30;18.05;;;6.82;;
26989;SDS011;14537;47.788;11.858;2022-12-16T04:05:55;19.83;;;7.20;;
26989;SDS011;14537;47.788;11.858;2022-12-16T04:08:21;13.27;;;5.95;;
26989;SDS011;14537;47.788;11.858;2022-12-16T04:10:49;12.80;;;5.28;;
26989;SDS011;14537;47.788;11.858;2022-12-16T04:13:34;18.13;;;6.53;;
26989;SDS011;14537;47.788;11.858;2022-12-16T04:16:18;15.38;;;6.38;;
26989;SDS011;14537;47.788;11.858;2022-12-16T04:19:03;16.58;;;6.35;;
26989;SDS011;14537;47.788;11.858;2022-12-16T04:21:47;13.10;;;5.22;;
26989;SDS011;14537;47.788;11.858;2022-12-16T04:24:31;12.35;;;5.43;;
26989;SDS011;14537;47.788;11.858;2022-12-16T04:26:58;10.82;;;4.75;;
26989;SDS011;14537;47.788;11.858;2022-12-16T04:29:42;11.05;;;5.00;;
26989;SDS011;14537;47.788;11.858;2022-12-16T04:32:27;10.40;;;4.82;;
26989;SDS011;14537;47.788;11.858;2022-12-16T04:35:13;9.82;;;4.72;;
26989;SDS011;14537;47.788;11.858;2022-12-16T04:37:57;13.25;;;5.30;;
26989;SDS011;14537;47.788;11.858;2022-12-16T04:40:41;10.10;;;4.30;;
26989;SDS011;14537;47.788;11.858;2022-12-16T04:43:25;9.48;;;4.35;;
26989;SDS011;14537;47.788;11.858;2022-12-16T04:46:09;11.15;;;4.25;;
26989;SDS011;14537;47.788;11.858;2022-12-16T04:48:53;9.55;;;4.25;;
26989;SDS011;14537;47.788;11.858;2022-12-16T04:51:42;9.15;;;4.25;;
26989;SDS011;14537;47.788;11.858;2022-12-16T04:54:27;7.57;;;3.47;;
26989;SDS011;14537;47.788;11.858;2022-12-16T04:57:11;9.30;;;3.83;;
26989;SDS011;14537;47.788;11.858;2022-12-16T04:59:55;10.00;;;4.28;;
26989;SDS011;14537;47.788;11.858;2022-12-16T05:02:39;8.25;;;3.53;;
26989;SDS011;14537;47.788;11.858;2022-12-16T05:05:23;7.95;;;3.72;;
26989;SDS011;14537;47.788;11.858;2022-12-16T05:08:07;8.30;;;3.95;;
26989;SDS011;14537;47.788;11.858;2022-12-16T05:10:51;8.00;;;3.10;;
26989;SDS011;14537;47.788;11.858;2022-12-16T05:13:35;6.75;;;3.55;;
26989;SDS011;14537;47.788;11.858;2022-12-16T05:16:19;6.85;;;3.45;;
26989;SDS011;14537;47.788;11.858;2022-12-16T05:19:03;6.22;;;3.25;;
26989;SDS011;14537;47.788;11.858;2022-12-16T05:21:47;7.43;;;3.22;;
26989;SDS011;14537;47.788;11.858;2022-12-16T05:24:31;7.82;;;3.70;;
26989;SDS011;14537;47.788;11.858;2022-12-16T05:27:15;8.02;;;4.07;;
26989;SDS011;14537;47.788;11.858;2022-12-16T05:29:59;9.02;;;3.83;;
26989;SDS011;14537;47.788;11.858;2022-12-16T05:32:47;7.28;;;3.38;;
26989;SDS011;14537;47.788;11.858;2022-12-16T05:35:31;10.07;;;3.95;;
26989;SDS011;14537;47.788;11.858;2022-12-16T05:38:15;14.02;;;4.63;;
26989;SDS011;14537;47.788;11.858;2022-12-16T05:40:59;8.95;;;4.43;;
26989;SDS011;14537;47.788;11.858;2022-12-16T05:43:43;7.88;;;3.42;;
26989;SDS011;14537;47.788;11.858;2022-12-16T05:46:27;6.57;;;3.92;;
26989;SDS011;14537;47.788;11.858;2022-12-16T05:49:11;9.00;;;3.78;;
26989;SDS011;14537;47.788;11.858;2022-12-16T05:51:55;13.45;;;4.40;;
26989;SDS011;14537;47.788;11.858;2022-12-16T05:54:40;12.82;;;4.78;;
26989;SDS011;14537;47.788;11.858;2022-12-16T05:57:23;13.63;;;5.10;;
26989;SDS011;14537;47.788;11.858;2022-12-16T06:00:12;9.00;;;4.35;;
26989;SDS011;14537;47.788;11.858;2022-12-16T06:02:57;10.20;;;4.90;;
26989;SDS011;14537;47.788;11.858;2022-12-16T06:05:41;9.23;;;4.28;;
26989;SDS011;14537;47.788;11.858;2022-12-16T06:08:26;9.35;;;4.63;;
26989;SDS011;14537;47.788;11.858;2022-12-16T06:11:24;7.43;;;4.25;;
26989;SDS011;14537;47.788;11.858;2022-12-16T06:14:08;9.70;;;4.95;;
26989;SDS011;14537;47.788;11.858;2022-12-16T06:16:52;7.75;;;4.13;;
26989;SDS011;14537;47.788;11.858;2022-12-16T06:19:36;11.20;;;4.95;;
26989;SDS011;14537;47.788;11.858;2022-12-16T06:22:20;7.68;;;4.50;;
26989;SDS011;14537;47.788;11.858;2022-12-16T06:25:04;13.35;;;6.00;;
26989;SDS011;14537;47.788;11.858;2022-12-16T06:27:49;11.98;;;5.13;;
26989;SDS011;14537;47.788;11.858;2022-12-16T06:30:34;14.05;;;6.43;;
26989;SDS011;14537;47.788;11.858;2022-12-16T06:33:18;19.60;;;6.90;;
26989;SDS011;14537;47.788;11.858;2022-12-16T06:36:02;13.82;;;6.43;;
26989;SDS011;14537;47.788;11.858;2022-12-16T06:38:47;14.25;;;5.75;;
26989;SDS011;14537;47.788;11.858;2022-12-16T06:41:31;12.88;;;5.97;;
26989;SDS011;14537;47.788;11.858;2022-12-16T06:44:15;17.52;;;6.55;;
26989;SDS011;14537;47.788;11.858;2022-12-16T06:46:59;18.08;;;6.30;;
26989;SDS011;14537;47.788;11.858;2022-12-16T06:49:47;17.23;;;5.78;;
26989;SDS011;14537;47.788;11.858;2022-12-16T06:52:32;15.73;;;7.03;;
26989;SDS011;14537;47.788;11.858;2022-12-16T06:55:16;12.23;;;6.13;;
26989;SDS011;14537;47.788;11.858;2022-12-16T06:58:00;13.88;;;5.90;;
26989;SDS011;14537;47.788;11.858;2022-12-16T07:00:44;9.85;;;4.90;;
26989;SDS011;14537;47.788;11.858;2022-12-16T07:03:29;9.38;;;4.68;;
26989;SDS011;14537;47.788;11.858;2022-12-16T07:06:13;8.52;;;4.35;;
26989;SDS011;14537;47.788;11.858;2022-12-16T07:08:57;10.02;;;4.22;;
26989;SDS011;14537;47.788;11.858;2022-12-16T07:11:41;8.98;;;3.60;;
26989;SDS011;14537;47.788;11.858;2022-12-16T07:14:25;5.50;;;2.83;;
26989;SDS011;14537;47.788;11.858;2022-12-16T07:17:09;5.43;;;3.35;;
26989;SDS011;14537;47.788;11.858;2022-12-16T07:19:53;7.15;;;3.17;;
26989;SDS011;14537;47.788;11.858;2022-12-16T07:22:41;7.03;;;3.03;;
26989;SDS011;14537;47.788;11.858;2022-12-16T07:25:28;5.18;;;2.53;;
26989;SDS011;14537;47.788;11.858;2022-12-16T07:28:13;8.02;;;3.97;;
26989;SDS011;14537;47.788;11.858;2022-12-16T07:30:57;5.07;;;2.70;;
26989;SDS011;14537;47.788;11.858;2022-12-16T07:33:41;7.65;;;3.42;;
26989;SDS011;14537;47.788;11.858;2022-12-16T07:36:25;10.00;;;3.97;;
26989;SDS011;14537;47.788;11.858;2022-12-16T07:39:09;5.88;;;2.90;;
26989;SDS011;14537;47.788;11.858;2022-12-16T07:41:54;7.07;;;3.60;;
26989;SDS011;14537;47.788;11.858;2022-12-16T07:44:38;8.05;;;4.00;;
26989;SDS011;14537;47.788;11.858;2022-12-16T07:47:22;9.80;;;3.42;;
26989;SDS011;14537;47.788;11.858;2022-12-16T07:50:06;6.45;;;3.35;;
26989;SDS011;14537;47.788;11.858;2022-12-16T07:52:54;7.43;;;3.45;;
26989;SDS011;14537;47.788;11.858;2022-12-16T07:55:42;6.95;;;3.40;;
26989;SDS011;14537;47.788;11.858;2022-12-16T07:58:27;10.88;;;4.18;;
26989;SDS011;14537;47.788;11.858;2022-12-16T08:01:11;7.28;;;3.42;;
26989;SDS011;14537;47.788;11.858;2022-12-16T08:03:55;5.88;;;3.00;;
26989;SDS011;14537;47.788;11.858;2022-12-16T08:06:39;6.80;;;3.08;;
26989;SDS011;14537;47.788;11.858;2022-12-16T08:09:24;9.00;;;3.22;;
26989;SDS011;14537;47.788;11.858;2022-12-16T08:12:09;7.25;;;3.50;;
26989;SDS011;14537;47.788;11.858;2022-12-16T08:14:53;5.63;;;2.90;;
26989;SDS011;14537;47.788;11.858;2022-12-16T08:17:37;18.75;;;5.63;;
26989;SDS011;14537;47.788;11.858;2022-12-16T08:20:24;6.97;;;3.28;;
26989;SDS011;14537;47.788;11.858;2022-12-16T08:23:08;7.90;;;3.63;;
26989;SDS011;14537;47.788;11.858;2022-12-16T08:25:52;7.53;;;3.85;;
26989;SDS011;14537;47.788;11.858;2022-12-16T08:28:37;10.43;;;4.40;;
26989;SDS011;14537;47.788;11.858;2022-12-16T08:31:21;8.27;;;4.00;;
26989;SDS011;14537;47.788;11.858;2022-12-16T08:34:05;6.93;;;4.10;;
26989;SDS011;14537;47.788;11.858;2022-12-16T08:36:49;8.63;;;3.60;;
26989;SDS011;14537;47.788;11.858;2022-12-16T08:39:33;9.90;;;4.60;;
26989;SDS011;14537;47.788;11.858;2022-12-16T08:42:17;8.73;;;4.45;;
26989;SDS011;14537;47.788;11.858;2022-12-16T08:45:01;11.05;;;4.10;;
26989;SDS011;14537;47.788;11.858;2022-12-16T08:47:45;9.95;;;4.78;;
26989;SDS011;14537;47.788;11.858;2022-12-16T08:50:29;10.60;;;4.43;;
26989;SDS011;14537;47.788;11.858;2022-12-16T08:53:13;9.32;;;4.40;;
26989;SDS011;14537;47.788;11.858;2022-12-16T08:56:02;9.73;;;4.55;;
26989;SDS011;14537;47.788;11.858;2022-12-16T08:58:46;14.77;;;5.18;;
26989;SDS011;14537;47.788;11.858;2022-12-16T09:01:30;22.33;;;6.88;;
26989;SDS011;14537;47.788;11.858;2022-12-16T09:04:14;24.92;;;7.63;;
26989;SDS011;14537;47.788;11.858;2022-12-16T09:06:58;15.00;;;5.75;;
26989;SDS011;14537;47.788;11.858;2022-12-16T09:09:43;11.48;;;4.88;;
26989;SDS011;14537;47.788;11.858;2022-12-16T09:12:27;9.95;;;3.92;;
26989;SDS011;14537;47.788;11.858;2022-12-16T09:15:11;5.20;;;2.95;;
26989;SDS011;14537;47.788;11.858;2022-12-16T09:17:55;5.28;;;3.22;;
26989;SDS011;14537;47.788;11.858;2022-12-16T09:20:39;5.22;;;2.92;;
26989;SDS011;14537;47.788;11.858;2022-12-16T09:23:24;6.90;;;3.55;;
26989;SDS011;14537;47.788;11.858;2022-12-16T09:26:08;5.40;;;3.25;;
26989;SDS011;14537;47.788;11.858;2022-12-16T09:28:52;15.93;;;4.38;;
26989;SDS011;14537;47.788;11.858;2022-12-16T09:31:36;6.07;;;3.47;;
26989;SDS011;14537;47.788;11.858;2022-12-16T09:34:20;6.13;;;3.40;;
26989;SDS011;14537;47.788;11.858;2022-12-16T09:37:04;6.85;;;3.55;;
26989;SDS011;14537;47.788;11.858;2022-12-16T09:39:48;9.40;;;4.43;;
26989;SDS011;14537;47.788;11.858;2022-12-16T09:45:51;7.22;;;3.80;;
26989;SDS011;14537;47.788;11.858;2022-12-16T09:51:37;7.43;;;3.90;;
26989;SDS011;14537;47.788;11.858;2022-12-16T09:54:23;8.18;;;3.45;;
26989;SDS011;14537;47.788;11.858;2022-12-16T09:57:10;4.85;;;2.80;;
26989;SDS011;14537;47.788;11.858;2022-12-16T09:59:58;6.63;;;3.03;;
26989;SDS011;14537;47.788;11.858;2022-12-16T10:02:50;5.43;;;3.30;;
26989;SDS011;14537;47.788;11.858;2022-12-16T10:05:37;6.85;;;3.70;;
26989;SDS011;14537;47.788;11.858;2022-12-16T10:08:37;7.05;;;3.10;;
26989;SDS011;14537;47.788;11.858;2022-12-16T10:14:37;10.43;;;3.28;;
26989;SDS011;14537;47.788;11.858;2022-12-16T10:17:29;9.40;;;4.30;;
26989;SDS011;14537;47.788;11.858;2022-12-16T10:20:36;7.65;;;4.20;;
26989;SDS011;14537;47.788;11.858;2022-12-16T10:26:35;10.57;;;4.15;;
26989;SDS011;14537;47.788;11.858;2022-12-16T10:29:30;7.28;;;3.70;;
26989;SDS011;14537;47.788;11.858;2022-12-16T10:35:17;14.80;;;6.55;;
26989;SDS011;14537;47.788;11.858;2022-12-16T10:38:24;8.30;;;4.18;;
26989;SDS011;14537;47.788;11.858;2022-12-16T10:41:18;5.68;;;3.10;;
26989;SDS011;14537;47.788;11.858;2022-12-16T10:44:05;8.63;;;3.70;;
26989;SDS011;14537;47.788;11.858;2022-12-16T10:47:01;5.32;;;2.83;;
26989;SDS011;14537;47.788;11.858;2022-12-16T10:49:46;7.70;;;3.60;;
26989;SDS011;14537;47.788;11.858;2022-12-16T10:52:31;8.32;;;4.07;;
26989;SDS011;14537;47.788;11.858;2022-12-16T10:55:24;5.88;;;3.55;;
26989;SDS011;14537;47.788;11.858;2022-12-16T10:58:35;7.50;;;4.13;;
26989;SDS011;14537;47.788;11.858;2022-12-16T11:01:27;5.80;;;3.70;;
26989;SDS011;14537;47.788;11.858;2022-12-16T11:04:33;6.63;;;3.15;;
26989;SDS011;14537;47.788;11.858;2022-12-16T11:13:28;11.25;;;4.68;;
26989;SDS011;14537;47.788;11.858;2022-12-16T11:16:16;7.95;;;4.50;;
26989;SDS011;14537;47.788;11.858;2022-12-16T11:19:21;9.27;;;3.80;;
26989;SDS011;14537;47.788;11.858;2022-12-16T11:22:17;6.45;;;3.63;;
26989;SDS011;14537;47.788;11.858;2022-12-16T11:28:04;6.95;;;3.95;;
26989;SDS011;14537;47.788;11.858;2022-12-16T11:31:05;12.45;;;4.70;;
26989;SDS011;14537;47.788;11.858;2022-12-16T11:33:55;10.60;;;4.55;;
26989;SDS011;14537;47.788;11.858;2022-12-16T11:36:42;9.63;;;4.70;;
26989;SDS011;14537;47.788;11.858;2022-12-16T11:39:28;11.77;;;5.22;;
26989;SDS011;14537;47.788;11.858;2022-12-16T11:42:19;11.07;;;4.47;;
26989;SDS011;14537;47.788;11.858;2022-12-16T11:45:11;9.35;;;4.32;;
26989;SDS011;14537;47.788;11.858;2022-12-16T11:48:04;8.23;;;4.97;;
26989;SDS011;14537;47.788;11.858;2022-12-16T11:50:53;19.95;;;6.60;;
26989;SDS011;14537;47.788;11.858;2022-12-16T11:53:44;12.10;;;5.53;;
26989;SDS011;14537;47.788;11.858;2022-12-16T11:56:36;12.45;;;5.30;;
26989;SDS011;14537;47.788;11.858;2022-12-16T11:59:49;14.40;;;6.03;;
26989;SDS011;14537;47.788;11.858;2022-12-16T12:02:37;11.85;;;5.78;;
26989;SDS011;14537;47.788;11.858;2022-12-16T12:05:41;13.70;;;6.07;;
26989;SDS011;14537;47.788;11.858;2022-12-16T12:11:38;12.65;;;6.00;;
26989;SDS011;14537;47.788;11.858;2022-12-16T12:17:43;18.75;;;8.23;;
26989;SDS011;14537;47.788;11.858;2022-12-16T12:20:55;13.13;;;5.53;;
26989;SDS011;14537;47.788;11.858;2022-12-16T12:26:35;15.48;;;6.30;;
26989;SDS011;14537;47.788;11.858;2022-12-16T12:47:33;19.95;;;9.23;;
26989;SDS011;14537;47.788;11.858;2022-12-16T12:50:30;34.05;;;11.18;;
26989;SDS011;14537;47.788;11.858;2022-12-16T12:59:34;21.27;;;9.05;;
26989;SDS011;14537;47.788;11.858;2022-12-16T13:02:28;22.95;;;9.52;;
26989;SDS011;14537;47.788;11.858;2022-12-16T13:05:20;29.08;;;9.23;;
26989;SDS011;14537;47.788;11.858;2022-12-16T13:11:26;28.13;;;10.18;;
26989;SDS011;14537;47.788;11.858;2022-12-16T13:17:13;25.73;;;9.85;;
26989;SDS011;14537;47.788;11.858;2022-12-16T13:19:58;19.73;;;8.32;;
26989;SDS011;14537;47.788;11.858;2022-12-16T13:22:42;23.50;;;8.90;;
26989;SDS011;14537;47.788;11.858;2022-12-16T13:28:39;29.60;;;9.60;;
26989;SDS011;14537;47.788;11.858;2022-12-16T13:31:25;28.83;;;9.75;;
26989;SDS011;14537;47.788;11.858;2022-12-16T13:36:57;26.60;;;10.85;;
26989;SDS011;14537;47.788;11.858;2022-12-16T13:39:43;26.30;;;11.25;;
26989;SDS011;14537;47.788;11.858;2022-12-16T13:42:50;21.05;;;8.88;;
26989;SDS011;14537;47.788;11.858;2022-12-16T13:45:37;29.00;;;11.48;;
26989;SDS011;14537;47.788;11.858;2022-12-16T13:48:28;21.75;;;9.35;;
26989;SDS011;14537;47.788;11.858;2022-12-16T13:54:29;27.90;;;10.25;;
26989;SDS011;14537;47.788;11.858;2022-12-16T13:57:41;23.50;;;9.20;;
26989;SDS011;14537;47.788;11.858;2022-12-16T14:00:26;35.90;;;13.38;;
26989;SDS011;14537;47.788;11.858;2022-12-16T14:06:10;22.42;;;10.18;;
26989;SDS011;14537;47.788;11.858;2022-12-16T14:09:00;20.85;;;9.10;;
26989;SDS011;14537;47.788;11.858;2022-12-16T14:12:01;35.13;;;12.38;;
26989;SDS011;14537;47.788;11.858;2022-12-16T14:14:54;29.08;;;10.80;;
26989;SDS011;14537;47.788;11.858;2022-12-16T14:17:46;31.00;;;10.80;;
26989;SDS011;14537;47.788;11.858;2022-12-16T14:20:49;30.17;;;10.98;;
26989;SDS011;14537;47.788;11.858;2022-12-16T14:23:52;24.45;;;10.13;;
26989;SDS011;14537;47.788;11.858;2022-12-16T14:26:43;23.77;;;8.85;;
26989;SDS011;14537;47.788;11.858;2022-12-16T14:29:28;24.20;;;9.20;;
26989;SDS011;14537;47.788;11.858;2022-12-16T14:32:28;24.02;;;9.50;;
26989;SDS011;14537;47.788;11.858;2022-12-16T14:35:14;27.88;;;10.52;;
26989;SDS011;14537;47.788;11.858;2022-12-16T14:38:19;24.73;;;10.60;;
26989;SDS011;14537;47.788;11.858;2022-12-16T14:41:12;24.08;;;9.82;;
26989;SDS011;14537;47.788;11.858;2022-12-16T14:43:58;35.50;;;11.57;;
26989;SDS011;14537;47.788;11.858;2022-12-16T14:46:47;30.02;;;11.32;;
26989;SDS011;14537;47.788;11.858;2022-12-16T14:49:32;24.92;;;10.68;;
26989;SDS011;14537;47.788;11.858;2022-12-16T14:52:21;32.05;;;11.52;;
26989;SDS011;14537;47.788;11.858;2022-12-16T14:58:01;27.20;;;9.73;;
26989;SDS011;14537;47.788;11.858;2022-12-16T15:00:55;27.33;;;10.52;;
26989;SDS011;14537;47.788;11.858;2022-12-16T15:03:45;28.10;;;10.15;;
26989;SDS011;14537;47.788;11.858;2022-12-16T15:06:39;23.30;;;10.25;;
26989;SDS011;14537;47.788;11.858;2022-12-16T15:09:27;28.92;;;9.70;;
26989;SDS011;14537;47.788;11.858;2022-12-16T15:12:18;27.58;;;11.00;;
26989;SDS011;14537;47.788;11.858;2022-12-16T15:15:05;21.73;;;8.65;;
26989;SDS011;14537;47.788;11.858;2022-12-16T15:17:54;23.73;;;9.00;;
26989;SDS011;14537;47.788;11.858;2022-12-16T15:23:31;29.45;;;10.68;;
26989;SDS011;14537;47.788;11.858;2022-12-16T15:26:17;25.10;;;10.63;;
26989;SDS011;14537;47.788;11.858;2022-12-16T15:29:25;29.35;;;12.00;;
26989;SDS011;14537;47.788;11.858;2022-12-16T15:38:24;27.70;;;9.85;;
26989;SDS011;14537;47.788;11.858;2022-12-16T15:41:30;28.83;;;12.00;;
26989;SDS011;14537;47.788;11.858;2022-12-16T15:44:21;30.60;;;10.73;;
26989;SDS011;14537;47.788;11.858;2022-12-16T15:47:20;33.65;;;10.77;;
26989;SDS011;14537;47.788;11.858;2022-12-16T15:50:17;31.73;;;11.20;;
26989;SDS011;14537;47.788;11.858;2022-12-16T15:56:20;28.80;;;11.68;;
26989;SDS011;14537;47.788;11.858;2022-12-16T16:01:58;35.83;;;10.93;;
26989;SDS011;14537;47.788;11.858;2022-12-16T16:04:52;35.72;;;13.32;;
26989;SDS011;14537;47.788;11.858;2022-12-16T16:07:36;60.50;;;19.10;;
26989;SDS011;14537;47.788;11.858;2022-12-16T16:10:21;38.22;;;13.55;;
26989;SDS011;14537;47.788;11.858;2022-12-16T16:13:08;44.50;;;16.33;;
26989;SDS011;14537;47.788;11.858;2022-12-16T16:15:53;37.25;;;13.85;;
26989;SDS011;14537;47.788;11.858;2022-12-16T16:18:38;35.33;;;13.48;;
26989;SDS011;14537;47.788;11.858;2022-12-16T16:21:24;35.08;;;13.32;;
26989;SDS011;14537;47.788;11.858;2022-12-16T16:24:08;40.05;;;15.32;;
26989;SDS011;14537;47.788;11.858;2022-12-16T16:26:52;41.97;;;13.52;;
26989;SDS011;14537;47.788;11.858;2022-12-16T16:29:37;41.90;;;15.23;;
26989;SDS011;14537;47.788;11.858;2022-12-16T16:32:21;34.70;;;13.63;;
26989;SDS011;14537;47.788;11.858;2022-12-16T16:35:06;37.50;;;13.10;;
26989;SDS011;14537;47.788;11.858;2022-12-16T16:37:50;34.42;;;13.15;;
26989;SDS011;14537;47.788;11.858;2022-12-16T16:43:20;34.53;;;14.55;;
26989;SDS011;14537;47.788;11.858;2022-12-16T16:46:12;39.03;;;15.57;;
26989;SDS011;14537;47.788;11.858;2022-12-16T16:49:03;40.42;;;14.20;;
26989;SDS011;14537;47.788;11.858;2022-12-16T16:51:51;41.13;;;13.20;;
26989;SDS011;14537;47.788;11.858;2022-12-16T16:54:36;43.70;;;15.18;;
26989;SDS011;14537;47.788;11.858;2022-12-16T16:57:20;36.25;;;14.98;;
26989;SDS011;14537;47.788;11.858;2022-12-16T17:00:04;37.92;;;14.80;;
26989;SDS011;14537;47.788;11.858;2022-12-16T17:02:49;38.03;;;15.02;;
26989;SDS011;14537;47.788;11.858;2022-12-16T17:05:33;55.10;;;18.83;;
26989;SDS011;14537;47.788;11.858;2022-12-16T17:08:17;39.58;;;14.93;;
26989;SDS011;14537;47.788;11.858;2022-12-16T17:11:01;50.83;;;16.27;;
26989;SDS011;14537;47.788;11.858;2022-12-16T17:13:45;36.95;;;14.15;;
26989;SDS011;14537;47.788;11.858;2022-12-16T17:16:29;48.72;;;16.70;;
26989;SDS011;14537;47.788;11.858;2022-12-16T17:19:13;37.65;;;14.85;;
26989;SDS011;14537;47.788;11.858;2022-12-16T17:21:57;42.83;;;16.33;;
26989;SDS011;14537;47.788;11.858;2022-12-16T17:24:41;34.47;;;14.48;;
26989;SDS011;14537;47.788;11.858;2022-12-16T17:27:25;36.30;;;12.38;;
26989;SDS011;14537;47.788;11.858;2022-12-16T17:30:14;40.47;;;14.38;;
26989;SDS011;14537;47.788;11.858;2022-12-16T17:33:01;38.97;;;15.70;;
26989;SDS011;14537;47.788;11.858;2022-12-16T17:35:47;37.00;;;13.73;;
26989;SDS011;14537;47.788;11.858;2022-12-16T17:38:39;31.20;;;13.07;;
26989;SDS011;14537;47.788;11.858;2022-12-16T17:41:26;44.80;;;15.07;;
26989;SDS011;14537;47.788;11.858;2022-12-16T17:44:11;39.30;;;14.32;;
26989;SDS011;14537;47.788;11.858;2022-12-16T17:46:55;41.72;;;15.18;;
26989;SDS011;14537;47.788;11.858;2022-12-16T17:49:39;40.63;;;14.63;;
26989;SDS011;14537;47.788;11.858;2022-12-16T17:52:24;39.05;;;14.68;;
26989;SDS011;14537;47.788;11.858;2022-12-16T17:55:08;51.03;;;16.38;;
26989;SDS011;14537;47.788;11.858;2022-12-16T17:57:52;41.00;;;12.90;;